X  Cerrar Datos meteorológicos de aviación METAR     EHAM Amsterdam Airport Schiphol
Temperatura
4°C Temperatura
2°C Punto de rocío
87% Humedad



Viento
5 M/S
12 MPH
19 KM/H
10 NUDO



20°
NNE
Condiciones actuales

Claro Claro
Presión 1016.93 (hPa) - 30.03 (inHg)
Visibilidad 6 (milla) - 9.7 (km)
Aeropuerto
Código de aeropuerto EHAM

localidad: Amsterdam Airport Schiphol
Distancia: 26 (km)

Metar:
EHAM 270225Z 02010KT 340V050 CAVOK 04/02 Q1017 NOSIG

Hora: 27-02-2024 03:25 CET